Extreme weather reports worldwide

Rain

Station
 
Location
 
Name
 
Wind
Knots
Gust
Knots
Vis
SM
Temp/Dew
C
Baro
inHg
METAR
 
ENNE 41 51 5.59 2/-2 29.50 ENNE 280950Z 30041G51KT 9000 -SHRA SCT020 BKN030 02/M02 Q0999 W///S6
ENUN 37 50 2/-2 29.35 ENUN 280950Z AUTO 27037G50KT 9999NDV -SHRA BKN020/// OVC057/// 02/M02 Q0994 W07/S7
VEY BIVM Vestmannaeyjar, IS Vestmannaeyjar Airport 27 37 2.49 5/4 29.65 BIVM 281000Z 21027G37KT 4000 +RA OVC015 05/04 Q1004
YTZ CYTZ Toronto, CA Billy Bishop Toronto City Centre Airport 24 29 9 2/-2 29.89 CYTZ 280958Z AUTO 30024G29KT 250V320 9SM -RA BKN025 BKN034 OVC042 02/M02 A2989 RMK SLP127
KKX RJKI Kikai, JP Kikai Airport 18 28 6.21 12/7 30.09 RJKI 280900Z AUTO 33018G28KT 300V360 9999 -RA FEW029 SCT044 BKN047 12/07 Q1019

Station
 
Location
 
Name
 
Wind
Knots
Gust
Knots
Vis
SM
Temp/Dew
C
Baro
inHg
METAR
 
LSMA Alpnach, CH Alpnach Air Base 11 22 1/-4 30.18 LSMA 280950Z AUTO 02011G22KT 340V090 9999NDV -SHRASN SCT018 OVC024 01/M04 Q1022 RMK
LGD KLGD La Grande, US La Grande/Union County Airport 10 20 10 2/0 29.97 KLGD 280956Z AUTO 30010G20KT 10SM -RA FEW033 SCT065 BKN100 02/01 A2997 RMK AO2 RAB14E28B49 SLP165 P0000 T00220006 FZRANO
YTR CYTR Trenton, CA CFB Trenton 14 19 5 2/1 29.83 CYTR 280944Z 24014G19KT 5SM -RA BR OVC012 02/01 A2983 RMK ST8 DENSITY ALT -1047FT VIS VRB 3-7 SLP107
ENHE 45 4.97 2/-4 29.59 ENHE 280950Z 28045KT 8000 -SHRASN FEW015 BKN035 02/M04 Q1002 W///S6
KEF BIKF Reykjavík, IS Keflavik International Airport 24 4.97 5/4 29.53 BIKF 280930Z 19024KT 8000 -RA BKN011 OVC026 05/04 Q1000
OKA ROAH Naha, JP Naha Airport 23 6.21 13/8 30.15 ROAH 280930Z 35023KT 9999 -SHRA FEW028 BKN035 13/08 Q1021 RMK 1CU028 5CU035 A3016
WLG NZWN Wellington, NZ Wellington International Airport 23 1.18 16/16 30.03 NZWN 280930Z AUTO 21023KT 1900 -RA BR OVC005/// 16/16 Q1017 RERA
SHI RORS Shimojishima, JP Shimojishima Airport 23 6.21 13/6 30.18 RORS 280900Z 01023KT 9999 -SHRA SCT029 BKN050 13/06 Q1022
MOL ENML Årø, NO Molde Airport 21 6.21 4/1 29.91 ENML 280950Z 23021KT 9999 -SHRA FEW016CB SCT034 BKN045 04/01 Q1013
ENQA NO Troll A Platform 20 6/0 30.12 ENQA 280950Z AUTO 29020KT 9999NDV -SHRA FEW032/// BKN037/// 06/00 Q1020 W12/S5
ADF LTCP Adıyaman, TR Adıyaman Airport 18 1.99 3/1 30.06 LTCP 280950Z 07018KT 3200 RASN BR SCT010 BKN030 OVC090 03/01 Q1018 RERA
GJR BIGJ Gjögur, IS Gjögur Airport 18 2.49 / 29.47 BIGJ 281000Z 17018KT 4000 -RA OVC007 00/// Q0998
RKV BIRK Reykjavik, IS Reykjavik Airport 17 4.97 5/3 29.62 BIRK 280900Z 19017KT 8000 RA SCT014 OVC019 05/03 Q1003
BNN ENBN Brønnøy, NO Brønnøysund Airport 15 3/0 29.53 ENBN 280950Z AUTO 23015KT 9999NDV -SHRA FEW014/// SCT026/// BKN045/// 03/M00 Q1000
MMD ROMD Minamidaitō, JP Minami-Daito Airport 15 6.21 14/10 30.06 ROMD 280900Z AUTO 35015KT 9999 -RA FEW026 BKN050 BKN060 14/10 Q1018
TRD ENVA Trondheim, NO Trondheim Airport Værnes 15 5.59 1/0 29.79 ENVA 280950Z 23015KT 9000 -RA FEW015CB SCT025 BKN040 01/00 Q1009 TEMPO 27025G35KT 3000 SHSNRA BKN012CB RMK WIND 670FT 25017KT
DLM LTBS Dalaman, TR Dalaman International Airport 14 4.97 11/9 29.85 LTBS 280950Z 02014KT 8000 -SHRA FEW018CB SCT020 BKN090 11/09 Q1011 RETSRA BECMG TL1050 12009KT RMK RWY19 01012KT 1CB018 3CU020 6AC090
PNL LICG Pantelleria (TP), IT Pantelleria Airport 13 5.59 9/7 29.91 LICG 280912Z 24013KT 9000 -TSRAGR FEW010CB BKN015 09/07 Q1013
IST LTFM Istanbul, TR Istanbul Airport 13 4.97 5/4 29.88 LTFM 280950Z 35013KT 8000 -RA BKN004 BKN020 05/04 Q1012 NOSIG RMK RWY17L 33012KT RWY34L 34013KT RWY16R 33009KT RWY36 34014KT RWY18 35012KT
FRO ENFL Florø, NO Florø Airport 13 6.21 4/2 30.06 ENFL 280950Z 28013KT 9999 -SHRA FEW017TCU SCT022 BKN060 04/02 Q1018
TMP EFTP Tampere / Pirkkala, FI Tampere-Pirkkala Airport 13 3.73 0/-2 29.82 EFTP 280950Z AUTO 22013KT 6000 -FZRASN OVC011 M00/M02 Q1010
KOK EFKK Kokkola / Kruunupyy, FI Kokkola-Pietarsaari Airport 13 6.21 0/-1 29.62 EFKK 280950Z AUTO 22013KT 9999 -FZRASN OVC005 M00/M01 Q1003
HUI VVPB Hue, VN Phu Bai Airport 13 1.49 14/14 30.12 VVPB 280930Z 28013KT 2400 -RA BR SCT005 SCT010 BKN025 14/14 Q1020 NOSIG
KVC PAVC King Cove, US King Cove Airport 12 10 5/5 30.38 PAVC 280956Z AUTO 07012KT 10SM -RA OVC015 05/05 A3038 RMK AO2 RAB31 SLP290 T00500050 PNO $
SAW LTFJ Istanbul, TR Sabiha Gökçen International Airport 12 6.21 7/6 29.82 LTFJ 280950Z 01012KT 9999 -SHRA SCT007 BKN025 07/06 Q1010 NOSIG RMK RWY24 02012KT
USQ LTBO Uşak, TR Uşak Airport 12 5.59 5/4 29.79 LTBO 280950Z 19012KT 9000 -RA BKN035 BKN090 05/04 Q1009
LFOA Avord, FR Avord (BA 702) Air Base 12 6.21 3/1 30.30 LFOA 280930Z AUTO 03012KT 9999 -RA FEW014 SCT021 BKN028 03/01 Q1026 TEMPO BKN012
BDR KBDR Bridgeport, US Igor I Sikorsky Memorial Airport 11 10 3/-2 30.17 KBDR 280952Z AUTO 22011KT 10SM -RA BKN060 BKN080 OVC090 03/M02 A3017 RMK AO2 RAB49 SLP216 P0000 T00331022
BIU BIBD Bildudalur, IS Bildudalur Airport 11 4.97 1/0 29.47 BIBD 280900Z 23011KT 8000 SHRASN OVC018 01/M00 Q0998
ISL LTBA Istanbul, TR Atatürk International Airport 10 6.21 6/5 29.85 LTBA 280950Z 36010KT 9999 -RA FEW008 SCT010 OVC020 06/05 Q1011 RMK RWY23 36013KT
UMR YPWR Woomera, AU Woomera Airfield 10 6.21 23/19 29.73 YPWR 280930Z AUTO 21010KT 9999 -SHRA BKN098 OVC110 23/19 Q1007
DPS WADD Denpasar-Bali Island, ID Ngurah Rai (Bali) International Airport 10 4.97 26/25 29.68 WADD 280930Z 26010KT 8000 -RA BKN013 FEW014CB 26/25 Q1005 NOSIG
MKK PHMK Kaunakakai, US Molokai Airport 10 6 20/18 30.07 PHMK 280954Z AUTO 35010KT 6SM -RA BR SCT013 BKN019 OVC030 21/19 A3007 RMK AO2 RAE03B20 SLP185 P0001 T02060189 402280194 TSNO
EGOM Spadeadam, GB RAF Spadeadam 10 0.4 3/3 30.38 EGOM 280920Z AUTO 27010KT 0650 -RA OVC002/// 03/03 Q1029
LIRE Pomezia, IT Pratica Di Mare Air Base 9 4.97 7/5 29.88 LIRE 280855Z 02009KT 8000 -RA SCT020 FEW025TCU BKN033 07/05 Q1012 RMK OVC VIS MIN 8000 WIND
VIT LEVT Alava, ES Vitoria/Foronda Airport 9 4.35 2/1 30.27 LEVT 280930Z 02009KT 350V050 7000 -RA SCT015 BKN031 BKN050 02/01 Q1025
DNZ LTAY Denizli, TR Çardak Airport 9 4.97 8/2 29.79 LTAY 280950Z 20009KT 8000 -SHRA FEW020CB BKN030 08/02 Q1009 NOSIG
RCA KRCA Rapid City, US Ellsworth Air Force Base 9 5 -7/-8 29.91 KRCA 280956Z AUTO 05009KT 5SM -FZRA BR OVC004 M07/M08 A2991 RMK AO2 UPE56FZRAB56 SLP169 $
PRX KPRX Paris, US Cox Field 9 10 6/2 30.11 KPRX 280956Z AUTO 16009KT 10SM -RA BKN037 OVC055 06/02 A3011 RMK AO2 RAE0859B17 SLP199 P0000 T00610022
PLM WIPP Palembang-Sumatra Island, ID Sultan Mahmud Badaruddin II Airport 9 3.11 27/24 29.65 WIPP 280930Z 31009KT 5000 RA FEW010CB BKN011 27/24 Q1004 NOSIG
TNJ WIDN Tanjung Pinang-Bintan Island, ID Raja Haji Fisabilillah International Airport 9 4.35 24/24 29.70 WIDN 280930Z 34009KT 7000 -RA SCT010 24/24 Q1006 NOSIG
HOU KHOU Houston, US William P Hobby Airport 9 10 15/11 30.13 KHOU 280953Z 11009KT 10SM -RA OVC030 16/11 A3013 RMK AO2 RAB46 SLP209 P0000 T01560111
JHB WMKJ Johor Bahru, MY Senai International Airport 8 6.21 24/23 29.70 WMKJ 280900Z 35008KT 280V050 9999 -RA FEW012 SCT019 24/23 Q1006
MEP WMAU Mersing, MY Mersing Airport 8 1.24 23/23 29.73 WMAU 280900Z VRB08KT 2000 -RA FEW002 SCT025 23/23 Q1007
GJL DAAV Jijel, DZ Jijel Ferhat Abbas Airport 8 3.73 8/5 30.00 DAAV 280900Z 24008KT 210V360 6000 TSRA SCT016 FEW023CB BKN033 08/05 Q1016